createdAt,value
2023-05-02T00:01:06.900Z,17.77
2023-05-02T00:03:36.957Z,17.72
2023-05-02T00:06:05.335Z,17.68
2023-05-02T00:08:33.430Z,17.64
2023-05-02T00:11:01.496Z,17.51
2023-05-02T00:13:29.480Z,17.51
2023-05-02T00:15:57.484Z,17.44
2023-05-02T00:18:25.653Z,17.39
2023-05-02T00:20:56.551Z,17.38
2023-05-02T00:23:25.014Z,17.35
2023-05-02T00:25:53.524Z,17.24
2023-05-02T00:28:21.587Z,17.11
2023-05-02T00:30:49.635Z,17.02
2023-05-02T00:33:17.682Z,16.99
2023-05-02T00:35:46.069Z,16.93
2023-05-02T00:38:15.559Z,16.89
2023-05-02T00:40:47.780Z,16.84
2023-05-02T00:43:16.438Z,16.80
2023-05-02T00:45:46.356Z,16.76
2023-05-02T00:48:15.134Z,16.73
2023-05-02T00:50:44.421Z,16.69
2023-05-02T00:53:12.630Z,16.72
2023-05-02T00:55:42.069Z,16.73
2023-05-02T00:58:13.107Z,16.73
2023-05-02T01:01:00.475Z,16.70
2023-05-02T01:03:38.141Z,16.61
2023-05-02T01:06:17.866Z,16.61
2023-05-02T01:08:51.957Z,16.58
2023-05-02T01:11:36.748Z,16.45
2023-05-02T01:14:07.162Z,16.34
2023-05-02T01:16:40.673Z,16.28
2023-05-02T01:19:13.692Z,16.19
2023-05-02T01:21:42.539Z,16.13
2023-05-02T01:24:15.873Z,16.04
2023-05-02T01:26:53.673Z,15.98
2023-05-02T01:29:24.387Z,15.92
2023-05-02T01:31:53.239Z,15.87
2023-05-02T01:34:23.423Z,15.83
2023-05-02T01:36:52.907Z,15.82
2023-05-02T01:39:23.681Z,15.85
2023-05-02T01:41:53.451Z,15.81
2023-05-02T01:44:24.452Z,15.80
2023-05-02T01:46:54.525Z,15.73
2023-05-02T01:49:24.549Z,15.68
2023-05-02T01:51:53.588Z,15.68
2023-05-02T01:54:24.183Z,15.59
2023-05-02T01:56:53.401Z,15.53
2023-05-02T01:59:24.940Z,15.45
2023-05-02T02:01:54.197Z,15.43
2023-05-02T02:04:25.447Z,15.34
2023-05-02T02:06:56.338Z,15.31
2023-05-02T02:09:24.496Z,15.28
2023-05-02T02:11:58.966Z,15.24
2023-05-02T02:14:35.041Z,15.16
2023-05-02T02:17:06.320Z,15.15
2023-05-02T02:19:35.484Z,15.11
2023-05-02T02:22:07.672Z,15.08
2023-05-02T02:24:37.910Z,15.07
2023-05-02T02:27:05.983Z,15.08
2023-05-02T02:29:36.720Z,14.99
2023-05-02T02:32:04.842Z,14.91
2023-05-02T02:34:33.025Z,14.93
2023-05-02T02:37:06.098Z,14.81
2023-05-02T02:39:48.160Z,14.71
2023-05-02T02:42:22.030Z,14.81
2023-05-02T02:44:57.457Z,14.82
2023-05-02T02:47:30.453Z,14.84
2023-05-02T02:50:12.513Z,14.79
2023-05-02T02:52:53.385Z,14.74
2023-05-02T02:55:30.623Z,14.71
2023-05-02T02:58:05.154Z,14.71
2023-05-02T03:00:36.038Z,14.68
2023-05-02T03:03:04.236Z,14.67
2023-05-02T03:05:34.619Z,14.64
2023-05-02T03:08:03.087Z,14.57
2023-05-02T03:10:31.167Z,14.55
2023-05-02T03:12:59.183Z,14.52
2023-05-02T03:15:51.181Z,14.44
2023-05-02T03:18:23.261Z,14.41
2023-05-02T03:20:52.242Z,14.41
2023-05-02T03:23:20.443Z,14.47
2023-05-02T03:25:49.234Z,14.49
2023-05-02T03:28:22.513Z,14.39
2023-05-02T03:30:53.436Z,14.37
2023-05-02T03:33:22.618Z,14.34
2023-05-02T03:35:50.727Z,14.32
2023-05-02T03:38:18.772Z,14.32
2023-05-02T03:40:49.466Z,14.32
2023-05-02T03:43:17.532Z,14.28
2023-05-02T03:45:48.143Z,14.23
2023-05-02T03:48:19.069Z,14.15
2023-05-02T03:50:47.160Z,14.12
2023-05-02T03:53:16.173Z,14.13
2023-05-02T03:55:52.742Z,14.11
2023-05-02T03:58:28.970Z,14.05
2023-05-02T04:00:57.354Z,13.90
2023-05-02T04:03:30.213Z,13.84
2023-05-02T04:06:00.851Z,13.83
2023-05-02T04:08:29.238Z,13.82
2023-05-02T04:10:59.519Z,13.80
2023-05-02T04:13:29.206Z,13.78
2023-05-02T04:15:59.480Z,13.79
2023-05-02T04:18:32.637Z,13.77
2023-05-02T04:21:03.454Z,13.73
2023-05-02T04:23:32.127Z,13.75
2023-05-02T04:26:02.803Z,13.73
2023-05-02T04:28:40.172Z,13.76
2023-05-02T04:31:09.902Z,13.81
2023-05-02T04:33:40.310Z,13.81
2023-05-02T04:36:10.631Z,13.78
2023-05-02T04:38:40.947Z,13.80
2023-05-02T04:41:09.888Z,13.80
2023-05-02T04:43:43.639Z,13.81
2023-05-02T04:46:12.048Z,13.83
2023-05-02T04:48:42.342Z,13.84
2023-05-02T04:51:10.790Z,13.88
2023-05-02T04:53:38.958Z,13.89
2023-05-02T04:56:07.958Z,13.93
2023-05-02T04:58:38.351Z,13.88
2023-05-02T05:01:09.847Z,13.88
2023-05-02T05:03:38.674Z,13.88
2023-05-02T05:06:09.994Z,13.86
2023-05-02T05:08:38.677Z,13.85
2023-05-02T05:11:06.761Z,13.85
2023-05-02T05:13:35.301Z,13.82
2023-05-02T05:16:03.995Z,13.79
2023-05-02T05:18:40.320Z,13.78
2023-05-02T05:21:12.212Z,13.79
2023-05-02T05:23:45.806Z,13.79
2023-05-02T05:26:17.775Z,13.78
2023-05-02T05:28:50.680Z,13.82
2023-05-02T05:31:20.101Z,13.88
2023-05-02T05:33:51.972Z,13.92
2023-05-02T05:36:23.639Z,13.98
2023-05-02T05:38:52.750Z,13.99
2023-05-02T05:41:21.510Z,14.06
2023-05-02T05:43:54.123Z,14.14
2023-05-02T05:46:22.816Z,14.19
2023-05-02T05:48:51.186Z,14.21
2023-05-02T05:51:20.034Z,14.26
2023-05-02T05:53:49.773Z,14.20
2023-05-02T05:56:18.826Z,14.18
2023-05-02T05:58:55.920Z,14.21
2023-05-02T06:01:24.290Z,14.29
2023-05-02T06:03:53.321Z,14.32
2023-05-02T06:06:21.732Z,14.26
2023-05-02T06:08:51.454Z,14.25
2023-05-02T06:11:19.781Z,14.34
2023-05-02T06:13:48.080Z,14.39
2023-05-02T06:16:16.540Z,14.49
2023-05-02T06:18:44.836Z,14.53
2023-05-02T06:21:13.173Z,14.63
2023-05-02T06:23:41.470Z,14.71
2023-05-02T06:26:11.287Z,14.77
2023-05-02T06:28:39.581Z,14.81
2023-05-02T06:31:07.923Z,14.89
2023-05-02T06:33:36.824Z,14.89
2023-05-02T06:36:05.527Z,14.94
2023-05-02T06:38:33.815Z,14.93
2023-05-02T06:41:02.050Z,14.94
2023-05-02T06:43:31.765Z,14.92
2023-05-02T06:46:00.145Z,14.92
2023-05-02T06:48:28.388Z,14.95
2023-05-02T06:50:56.676Z,14.98
2023-05-02T06:53:24.979Z,15.00
2023-05-02T06:55:53.413Z,15.06
2023-05-02T06:58:21.659Z,15.21
2023-05-02T07:00:51.522Z,15.28
2023-05-02T07:03:19.807Z,15.39
2023-05-02T07:05:48.077Z,15.37
2023-05-02T07:08:16.363Z,15.34
2023-05-02T07:10:44.680Z,15.36
2023-05-02T07:13:12.953Z,15.42
2023-05-02T07:15:41.348Z,15.58
2023-05-02T07:18:11.068Z,15.67
2023-05-02T07:20:42.315Z,15.57
2023-05-02T07:23:10.644Z,15.47
2023-05-02T07:25:40.109Z,15.41
2023-05-02T07:28:10.028Z,15.36
2023-05-02T07:30:38.268Z,15.71
2023-05-02T07:33:06.711Z,16.12
2023-05-02T07:35:36.390Z,16.47
2023-05-02T07:38:04.714Z,16.72
2023-05-02T07:40:33.006Z,17.02
2023-05-02T07:43:02.828Z,17.25
2023-05-02T07:45:31.107Z,17.29
2023-05-02T07:47:59.513Z,17.30
2023-05-02T07:50:28.060Z,17.37
2023-05-02T07:52:58.043Z,17.33
2023-05-02T07:55:27.635Z,17.20
2023-05-02T07:57:56.069Z,17.08
2023-05-02T08:00:24.514Z,16.88
2023-05-02T08:02:52.972Z,16.98
2023-05-02T08:05:21.446Z,17.09
2023-05-02T08:07:49.811Z,17.17
2023-05-02T08:10:19.620Z,17.35
2023-05-02T08:12:47.918Z,17.64
2023-05-02T08:15:16.235Z,17.68
2023-05-02T08:17:44.740Z,17.64
2023-05-02T08:20:13.433Z,17.66
2023-05-02T08:22:41.734Z,17.54
2023-05-02T08:25:10.808Z,17.64
2023-05-02T08:27:40.498Z,18.13
2023-05-02T08:30:09.779Z,18.39
2023-05-02T08:32:38.615Z,18.41
2023-05-02T08:35:07.988Z,18.37
2023-05-02T08:37:36.490Z,18.19
2023-05-02T08:40:05.312Z,18.17
2023-05-02T08:42:35.029Z,18.39
2023-05-02T08:45:06.262Z,18.40
2023-05-02T08:47:34.653Z,18.52
2023-05-02T08:50:04.415Z,18.50
2023-05-02T08:52:34.170Z,18.43
2023-05-02T08:55:03.906Z,18.41
2023-05-02T08:57:32.908Z,18.57
2023-05-02T09:00:01.191Z,18.68
2023-05-02T09:02:51.754Z,18.63
2023-05-02T09:05:22.080Z,18.57
2023-05-02T09:07:52.221Z,18.62
2023-05-02T09:10:20.658Z,18.94
2023-05-02T09:12:49.036Z,19.08
2023-05-02T09:15:20.768Z,19.03
2023-05-02T09:17:51.140Z,18.78
2023-05-02T09:20:19.490Z,18.50
2023-05-02T09:22:52.574Z,18.30
2023-05-02T09:25:21.352Z,18.11
2023-05-02T09:27:54.240Z,18.11
2023-05-02T09:30:24.331Z,18.14
2023-05-02T09:32:56.242Z,18.22
2023-05-02T09:35:24.921Z,18.13
2023-05-02T09:37:54.399Z,18.35
2023-05-02T09:40:23.392Z,18.56
2023-05-02T09:42:51.722Z,18.71
2023-05-02T09:45:24.162Z,18.85
2023-05-02T09:47:54.353Z,18.92
2023-05-02T09:50:35.019Z,18.81
2023-05-02T09:53:04.987Z,18.96
2023-05-02T09:55:34.128Z,19.30
2023-05-02T09:58:02.550Z,19.25
2023-05-02T10:00:41.636Z,19.17
2023-05-02T10:03:11.760Z,18.94
2023-05-02T10:05:41.165Z,18.63
2023-05-02T10:08:10.511Z,18.30
2023-05-02T10:10:40.163Z,18.04
2023-05-02T10:13:11.200Z,17.91
2023-05-02T10:15:44.877Z,17.74
2023-05-02T10:18:22.759Z,17.74
2023-05-02T10:20:58.329Z,17.79
2023-05-02T10:23:31.148Z,17.83
2023-05-02T10:26:00.753Z,17.97
2023-05-02T10:28:29.543Z,18.20
2023-05-02T10:30:59.672Z,18.44
2023-05-02T10:33:31.825Z,18.76
2023-05-02T10:36:00.486Z,18.97
2023-05-02T10:38:28.890Z,19.03
2023-05-02T10:41:01.674Z,19.14
2023-05-02T10:43:33.884Z,19.36
2023-05-02T10:46:03.611Z,19.91
2023-05-02T10:48:33.310Z,20.79
2023-05-02T10:51:02.408Z,21.03
2023-05-02T10:53:32.655Z,20.61
2023-05-02T10:56:18.896Z,19.91
2023-05-02T10:58:49.003Z,19.59
2023-05-02T11:01:42.250Z,19.41
2023-05-02T11:04:12.376Z,19.24
2023-05-02T11:07:17.734Z,19.17
2023-05-02T11:09:46.098Z,19.41
2023-05-02T11:12:47.575Z,19.65
2023-05-02T11:15:16.531Z,20.10
2023-05-02T11:18:03.158Z,20.16
2023-05-02T11:20:32.894Z,19.92
2023-05-02T11:23:22.928Z,19.55
2023-05-02T11:25:53.388Z,19.33
2023-05-02T11:28:41.478Z,19.14
2023-05-02T11:31:11.200Z,18.95
2023-05-02T11:33:40.097Z,18.91
2023-05-02T11:36:09.627Z,19.10
2023-05-02T11:38:40.122Z,19.11
2023-05-02T11:41:08.125Z,19.09
2023-05-02T11:43:36.498Z,19.08
2023-05-02T11:46:05.991Z,18.95
2023-05-02T11:48:34.206Z,18.76
2023-05-02T11:51:04.840Z,18.66
2023-05-02T11:53:34.853Z,18.53
2023-05-02T11:56:05.316Z,18.35
2023-05-02T11:58:34.334Z,18.37
2023-05-02T12:01:14.456Z,18.44
2023-05-02T12:03:43.056Z,18.41
2023-05-02T12:06:12.973Z,18.62
2023-05-02T12:08:44.339Z,18.78
2023-05-02T12:11:15.813Z,18.96
2023-05-02T12:13:48.196Z,19.62
2023-05-02T12:16:16.780Z,20.47
2023-05-02T12:18:45.736Z,20.49
2023-05-02T12:21:14.034Z,20.70
2023-05-02T12:23:43.716Z,21.01
2023-05-02T12:26:18.720Z,21.18
2023-05-02T12:28:50.938Z,20.99
2023-05-02T12:31:19.639Z,20.96
2023-05-02T12:33:53.171Z,21.64
2023-05-02T12:36:21.655Z,21.81
2023-05-02T12:38:53.787Z,21.59
2023-05-02T12:41:34.050Z,21.08
2023-05-02T12:44:02.567Z,20.70
2023-05-02T12:46:31.551Z,20.41
2023-05-02T12:49:03.953Z,20.30
2023-05-02T12:51:33.026Z,20.21
2023-05-02T12:54:02.582Z,20.24
2023-05-02T12:56:32.785Z,20.31
2023-05-02T12:59:05.205Z,20.15
2023-05-02T13:01:35.465Z,19.87
2023-05-02T13:04:04.071Z,19.61
2023-05-02T13:06:32.320Z,19.38
2023-05-02T13:09:00.400Z,19.08
2023-05-02T13:11:29.844Z,18.97
2023-05-02T13:14:00.252Z,18.87
2023-05-02T13:16:30.376Z,18.88
2023-05-02T13:18:58.708Z,18.81
2023-05-02T13:21:26.778Z,18.64
2023-05-02T13:23:55.454Z,18.49
2023-05-02T13:26:23.567Z,18.39
2023-05-02T13:28:53.005Z,18.32
2023-05-02T13:31:21.030Z,18.34
2023-05-02T13:33:49.134Z,18.39
2023-05-02T13:36:17.196Z,18.44
2023-05-02T13:38:45.275Z,18.50
2023-05-02T13:41:13.336Z,18.59
2023-05-02T13:43:41.388Z,18.50
2023-05-02T13:46:10.937Z,18.69
2023-05-02T13:48:39.009Z,18.93
2023-05-02T13:51:07.122Z,18.93
2023-05-02T13:53:35.741Z,18.99
2023-05-02T13:56:03.834Z,19.20
2023-05-02T13:58:31.856Z,19.25
2023-05-02T14:01:01.158Z,19.23
2023-05-02T14:03:30.731Z,19.16
2023-05-02T14:05:58.864Z,19.07
2023-05-02T14:08:27.808Z,18.99
2023-05-02T14:10:56.133Z,18.72
2023-05-02T14:13:24.843Z,18.65
2023-05-02T14:15:53.916Z,18.76
2023-05-02T14:18:22.404Z,19.02
2023-05-02T14:20:51.791Z,19.36
2023-05-02T14:23:19.828Z,19.68
2023-05-02T14:25:47.819Z,19.89
2023-05-02T14:28:15.925Z,20.01
2023-05-02T14:30:43.955Z,20.26
2023-05-02T14:33:12.185Z,20.37
2023-05-02T14:35:40.259Z,20.21
2023-05-02T14:38:09.702Z,19.85
2023-05-02T14:40:38.164Z,19.52
2023-05-02T14:43:06.538Z,19.12
2023-05-02T14:45:34.882Z,18.80
2023-05-02T14:48:03.015Z,18.50
2023-05-02T14:50:31.128Z,18.38
2023-05-02T14:52:59.209Z,18.34
2023-05-02T14:55:28.734Z,18.27
2023-05-02T14:57:58.448Z,18.27
2023-05-02T15:00:26.743Z,18.34
2023-05-02T15:02:54.862Z,18.36
2023-05-02T15:05:23.220Z,18.42
2023-05-02T15:07:51.364Z,18.54
2023-05-02T15:10:19.550Z,18.58
2023-05-02T15:12:50.878Z,18.70
2023-05-02T15:15:19.021Z,18.83
2023-05-02T15:17:47.154Z,19.00
2023-05-02T15:20:15.390Z,19.18
2023-05-02T15:22:43.789Z,19.32
2023-05-02T15:25:11.916Z,19.45
2023-05-02T15:27:40.006Z,19.56
2023-05-02T15:30:10.618Z,19.74
2023-05-02T15:32:38.801Z,19.66
2023-05-02T15:35:08.217Z,19.38
2023-05-02T15:37:36.609Z,19.06
2023-05-02T15:40:05.560Z,18.88
2023-05-02T15:42:37.239Z,18.71
2023-05-02T15:45:06.425Z,18.62
2023-05-02T15:47:35.832Z,18.50
2023-05-02T15:50:05.015Z,18.34
2023-05-02T15:52:33.351Z,18.34
2023-05-02T15:55:01.767Z,18.35
2023-05-02T15:57:30.039Z,18.28
2023-05-02T15:59:58.107Z,18.19
2023-05-02T16:02:26.192Z,17.97
2023-05-02T16:04:55.725Z,17.93
2023-05-02T16:07:23.759Z,18.00
2023-05-02T16:09:51.984Z,18.00
2023-05-02T16:12:20.073Z,17.95
2023-05-02T16:14:48.118Z,17.96
2023-05-02T16:17:16.359Z,17.95
2023-05-02T16:19:44.512Z,17.98
2023-05-02T16:22:13.916Z,17.97
2023-05-02T16:24:42.860Z,17.99
2023-05-02T16:27:11.019Z,17.87
2023-05-02T16:29:39.032Z,17.89
2023-05-02T16:32:08.273Z,17.80
2023-05-02T16:34:37.244Z,17.78
2023-05-02T16:37:05.363Z,17.85
2023-05-02T16:39:35.972Z,18.02
2023-05-02T16:42:04.246Z,17.97
2023-05-02T16:44:32.517Z,17.82
2023-05-02T16:47:01.042Z,17.62
2023-05-02T16:49:29.213Z,17.48
2023-05-02T16:51:57.743Z,17.26
2023-05-02T16:54:26.007Z,17.22
2023-05-02T16:56:55.796Z,17.39
2023-05-02T16:59:23.834Z,17.56
2023-05-02T17:01:51.868Z,17.55
2023-05-02T17:04:20.827Z,17.52
2023-05-02T17:06:48.937Z,17.66
2023-05-02T17:09:18.531Z,17.79
2023-05-02T17:11:46.612Z,17.69
2023-05-02T17:14:16.142Z,17.72
2023-05-02T17:16:44.262Z,17.78
2023-05-02T17:19:12.739Z,17.80
2023-05-02T17:21:40.965Z,17.80
2023-05-02T17:24:09.528Z,17.82
2023-05-02T17:26:37.648Z,17.65
2023-05-02T17:29:05.774Z,17.50
2023-05-02T17:31:35.300Z,17.38
2023-05-02T17:34:03.658Z,17.29
2023-05-02T17:36:32.968Z,17.23
2023-05-02T17:39:01.112Z,17.15
2023-05-02T17:41:29.189Z,17.25
2023-05-02T17:43:59.542Z,17.43
2023-05-02T17:46:27.777Z,17.56
2023-05-02T17:48:57.633Z,17.62
2023-05-02T17:51:26.018Z,17.60
2023-05-02T17:53:54.335Z,17.52
2023-05-02T17:56:22.635Z,17.39
2023-05-02T17:58:51.134Z,17.20
2023-05-02T18:01:19.561Z,17.02
2023-05-02T18:03:48.509Z,16.84
2023-05-02T18:06:19.481Z,16.62
2023-05-02T18:08:47.873Z,16.44
2023-05-02T18:11:17.261Z,16.31
2023-05-02T18:13:46.267Z,16.24
2023-05-02T18:16:14.909Z,16.15
2023-05-02T18:18:43.285Z,16.05
2023-05-02T18:21:11.790Z,15.93
2023-05-02T18:23:41.741Z,15.85
2023-05-02T18:26:14.122Z,15.69
2023-05-02T18:28:44.489Z,15.57
2023-05-02T18:31:19.196Z,15.43
2023-05-02T18:33:47.802Z,15.29
2023-05-02T18:36:19.366Z,15.18
2023-05-02T18:38:49.153Z,15.11
2023-05-02T18:41:18.425Z,15.03
2023-05-02T18:43:46.728Z,14.94
2023-05-02T18:46:15.063Z,14.86
2023-05-02T18:48:43.707Z,14.81
2023-05-02T18:51:12.003Z,14.81
2023-05-02T18:53:40.364Z,14.77
2023-05-02T18:56:15.078Z,14.74
2023-05-02T18:58:43.407Z,14.77
2023-05-02T19:01:15.299Z,14.74
2023-05-02T19:03:44.399Z,14.70
2023-05-02T19:06:13.012Z,14.81
2023-05-02T19:08:41.419Z,14.89
2023-05-02T19:11:09.844Z,14.95
2023-05-02T19:13:39.680Z,14.98
2023-05-02T19:16:11.821Z,14.98
2023-05-02T19:18:40.688Z,15.02
2023-05-02T19:21:12.898Z,15.02
2023-05-02T19:23:41.953Z,15.04
2023-05-02T19:26:13.884Z,15.04
2023-05-02T19:28:44.434Z,15.04
2023-05-02T19:31:14.305Z,14.98
2023-05-02T19:33:50.007Z,14.93
2023-05-02T19:36:19.039Z,14.86
2023-05-02T19:38:49.295Z,14.74
2023-05-02T19:41:17.862Z,14.60
2023-05-02T19:43:47.870Z,14.51
2023-05-02T19:46:16.480Z,14.39
2023-05-02T19:48:44.821Z,14.28
2023-05-02T19:51:13.264Z,14.17
2023-05-02T19:53:41.592Z,14.08
2023-05-02T19:56:10.616Z,14.04
2023-05-02T19:58:38.942Z,13.99
2023-05-02T20:01:08.742Z,13.98
2023-05-02T20:03:37.326Z,14.01
2023-05-02T20:06:06.079Z,14.06
2023-05-02T20:08:34.667Z,14.08
2023-05-02T20:11:03.219Z,14.09
2023-05-02T20:13:31.558Z,14.12
2023-05-02T20:15:59.902Z,14.14
2023-05-02T20:18:29.697Z,14.13
2023-05-02T20:20:58.019Z,14.12
2023-05-02T20:23:26.403Z,14.09
2023-05-02T20:25:54.719Z,14.05
2023-05-02T20:28:23.149Z,13.99
2023-05-02T20:30:51.636Z,13.92
2023-05-02T20:33:20.429Z,13.85
2023-05-02T20:35:56.245Z,13.76
2023-05-02T20:38:24.910Z,13.67
2023-05-02T20:40:53.284Z,13.58
2023-05-02T20:43:23.076Z,13.47
2023-05-02T20:45:51.474Z,13.37
2023-05-02T20:48:20.034Z,13.26
2023-05-02T20:50:56.786Z,13.15
2023-05-02T20:53:25.269Z,13.06
2023-05-02T20:55:56.430Z,12.96
2023-05-02T20:58:26.182Z,12.88
2023-05-02T21:00:55.039Z,12.79
2023-05-02T21:03:24.001Z,12.71
2023-05-02T21:05:53.785Z,12.61
2023-05-02T21:08:24.179Z,12.53
2023-05-02T21:10:52.524Z,12.46
2023-05-02T21:13:23.884Z,12.35
2023-05-02T21:15:52.199Z,12.29
2023-05-02T21:18:21.309Z,12.23
2023-05-02T21:20:50.310Z,12.17
2023-05-02T21:23:18.628Z,12.10
2023-05-02T21:25:48.346Z,12.02
2023-05-02T21:28:16.594Z,11.97
2023-05-02T21:30:44.924Z,11.88
2023-05-02T21:33:14.934Z,11.82
2023-05-02T21:35:43.383Z,11.75
2023-05-02T21:38:11.849Z,11.69
2023-05-02T21:40:41.047Z,11.63
2023-05-02T21:43:10.797Z,11.58
2023-05-02T21:45:45.440Z,11.52
2023-05-02T21:48:14.100Z,11.48
2023-05-02T21:50:42.825Z,11.43
2023-05-02T21:53:11.467Z,11.39
2023-05-02T21:55:41.130Z,11.34
2023-05-02T21:58:12.352Z,11.31
2023-05-02T22:00:41.753Z,11.27
2023-05-02T22:03:11.957Z,11.23
2023-05-02T22:05:41.382Z,11.22
2023-05-02T22:08:11.195Z,11.23
2023-05-02T22:10:41.561Z,11.24
2023-05-02T22:13:13.564Z,11.23
2023-05-02T22:15:45.461Z,11.32
2023-05-02T22:18:14.366Z,11.45
2023-05-02T22:20:43.252Z,11.55
2023-05-02T22:23:12.055Z,11.66
2023-05-02T22:25:42.122Z,11.75
2023-05-02T22:28:12.313Z,11.88
2023-05-02T22:30:42.917Z,11.98
2023-05-02T22:33:12.180Z,12.06
2023-05-02T22:35:40.682Z,12.15
2023-05-02T22:38:10.003Z,12.21
2023-05-02T22:40:38.335Z,12.29
2023-05-02T22:43:06.644Z,12.37
2023-05-02T22:45:36.527Z,12.46
2023-05-02T22:48:05.461Z,12.53
2023-05-02T22:50:33.911Z,12.60
2023-05-02T22:53:04.132Z,12.65
2023-05-02T22:55:32.609Z,12.73
2023-05-02T22:58:00.943Z,12.75
2023-05-02T23:00:29.265Z,12.80
2023-05-02T23:02:59.146Z,12.87
2023-05-02T23:05:27.444Z,12.89
2023-05-02T23:07:55.663Z,12.92
2023-05-02T23:10:24.004Z,12.97
2023-05-02T23:12:52.264Z,13.00
2023-05-02T23:15:20.987Z,13.03
2023-05-02T23:17:49.306Z,13.04
2023-05-02T23:20:20.473Z,13.05
2023-05-02T23:22:48.777Z,13.04
2023-05-02T23:25:17.072Z,13.05
2023-05-02T23:27:45.723Z,13.09
2023-05-02T23:30:14.256Z,13.08
2023-05-02T23:32:42.730Z,13.12
2023-05-02T23:35:12.405Z,13.11
2023-05-02T23:37:42.737Z,13.10
2023-05-02T23:40:11.506Z,13.11
2023-05-02T23:42:40.521Z,13.11
2023-05-02T23:45:09.767Z,13.08
2023-05-02T23:47:38.489Z,13.09
2023-05-02T23:50:07.968Z,13.06
2023-05-02T23:52:36.264Z,13.03
2023-05-02T23:55:10.459Z,13.04
2023-05-02T23:58:03.533Z,13.02
